Aviation Digital Data Service (ADDS)

Output produced by METARs form (0533 UTC 19 February 2019)
found at http://www.aviationweather.gov/metar/data/
 
Forecast for: KDAB (DAYTONA BEACH , FL, US)
Text: KDAB 190212Z 1902/1924 02011KT P6SM VCSH OVC021
Forecast period: 0200 to 0600 UTC 19 February 2019
Forecast type: FROM: standard forecast or significant change
Winds: from the NNE (20 degrees) at 13 MPH (11 knots; 5.7 m/s)
Visibility: 6 or more miles 10+ km)
Ceiling: 2100 feet AGL
Clouds: overcast cloud deck at 2100 feet AGL
Weather: VCSH  (showers in vicinity)
Text: FM190600 01009KT P6SM BKN008 OVC020
Forecast period: 0600 to 1400 UTC 19 February 2019
Forecast type: FROM: standard forecast or significant change
Winds: from the N (10 degrees) at 10 MPH (9 knots; 4.6 m/s)
Visibility: 6 or more miles 10+ km)
Ceiling: 800 feet AGL
Clouds: broken clouds at 800 feet AGL
overcast cloud deck at 2000 feet AGL
Weather: no significant weather forecast for this period
Text: FM191400 05011KT P6SM VCSH BKN008 OVC025
Forecast period: 1400 UTC 19 February 2019 to 0000 UTC 20 February 2019
Forecast type: FROM: standard forecast or significant change
Winds: from the NE (50 degrees) at 13 MPH (11 knots; 5.7 m/s)
Visibility: 6 or more miles 10+ km)
Ceiling: 800 feet AGL
Clouds: broken clouds at 800 feet AGL
overcast cloud deck at 2500 feet AGL
Weather: VCSH  (showers in vicinity)